Time;durP1;ratioP1;P1;durP2;ratioP2;P2;SDS_P1;SDS_P2;PMS_P1;PMS_P2;Temp;Humidity;BMP_temperature;BMP_pressure;BME280_temperature;BME280_humidity;BME280_pressure;Samples;Min_cycle;Max_cycle;Signal;HPM_P1;HPM_P2
2022/03/16 00:02:21;;;;;;;81.03;42.47;;;3.70;99.90;;;;;;5050988;28;20037;-75
2022/03/16 00:04:52;;;;;;;80.07;39.13;;;3.80;99.90;;;;;;5052909;28;20044;-75
2022/03/16 00:07:19;;;;;;;75.50;39.80;;;3.80;99.90;;;;;;5053311;28;20037;-75
2022/03/16 00:09:45;;;;;;;75.70;36.95;;;3.80;99.90;;;;;;5085380;28;20045;-75
2022/03/16 00:12:12;;;;;;;72.28;35.63;;;3.70;99.90;;;;;;5085298;28;20123;-75
2022/03/16 00:14:38;;;;;;;82.38;37.97;;;3.70;99.90;;;;;;5052908;28;20171;-75
2022/03/16 00:17:05;;;;;;;87.15;42.95;;;3.70;99.90;;;;;;5085384;28;20053;-75
2022/03/16 00:19:31;;;;;;;75.18;40.10;;;3.70;99.90;;;;;;5052717;28;20488;-75
2022/03/16 00:21:59;;;;;;;168.65;48.38;;;3.80;99.90;;;;;;5053082;28;20041;-75
2022/03/16 00:24:25;;;;;;;54.92;29.15;;;3.80;99.90;;;;;;5085352;28;20033;-75
2022/03/16 00:26:51;;;;;;;199.02;44.63;;;3.70;99.90;;;;;;5052824;28;20129;-75
2022/03/16 00:29:17;;;;;;;48.05;24.50;;;3.60;99.90;;;;;;5052712;28;20166;-76
2022/03/16 00:31:42;;;;;;;159.60;40.15;;;3.50;99.90;;;;;;5083219;28;20025;-76
2022/03/16 00:34:08;;;;;;;39.55;21.85;;;3.30;99.90;;;;;;5052712;28;20063;-76
2022/03/16 00:36:34;;;;;;;44.60;23.25;;;3.20;99.90;;;;;;5051578;28;20080;-76
2022/03/16 00:39:00;;;;;;;39.78;22.23;;;3.10;99.90;;;;;;5051348;28;20053;-76
2022/03/16 00:41:26;;;;;;;50.17;26.35;;;3.00;99.90;;;;;;5051399;28;20102;-75
2022/03/16 00:43:52;;;;;;;60.88;29.55;;;2.80;99.90;;;;;;5051434;28;20080;-75
2022/03/16 00:46:18;;;;;;;52.22;29.42;;;2.70;99.90;;;;;;5052786;28;20033;-76
2022/03/16 00:48:44;;;;;;;49.88;26.30;;;2.80;99.90;;;;;;5051312;28;20056;-75
2022/03/16 00:51:11;;;;;;;38.53;22.50;;;2.80;99.90;;;;;;5051384;28;20064;-75
2022/03/16 00:53:39;;;;;;;52.65;25.50;;;2.80;99.90;;;;;;5052771;28;20385;-75
2022/03/16 00:56:06;;;;;;;50.88;24.48;;;2.70;99.90;;;;;;5052579;28;20037;-76
2022/03/16 00:58:32;;;;;;;54.47;28.10;;;2.50;99.90;;;;;;5052486;28;20402;-75
2022/03/16 01:00:58;;;;;;;62.00;28.02;;;2.40;99.90;;;;;;5032515;28;20059;-75
2022/03/16 01:03:25;;;;;;;69.93;32.88;;;2.40;99.90;;;;;;5034826;28;20095;-75
2022/03/16 01:05:51;;;;;;;71.10;34.38;;;2.40;99.90;;;;;;5052198;28;20131;-76
2022/03/16 01:08:17;;;;;;;77.07;33.67;;;2.40;99.90;;;;;;5052440;28;20052;-75
2022/03/16 01:10:43;;;;;;;67.65;36.22;;;2.40;99.90;;;;;;5052311;28;20041;-76
2022/03/16 01:13:09;;;;;;;83.07;39.17;;;2.50;99.90;;;;;;5051080;28;20052;-76
2022/03/16 01:15:35;;;;;;;75.35;36.83;;;2.50;99.90;;;;;;5051725;28;20076;-76
2022/03/16 01:18:01;;;;;;;60.55;31.02;;;2.60;99.90;;;;;;5055437;28;20118;-76
2022/03/16 01:20:27;;;;;;;42.83;26.85;;;2.70;99.90;;;;;;5055037;28;20064;-76
2022/03/16 01:22:53;;;;;;;49.83;27.83;;;2.70;99.90;;;;;;5055257;28;20049;-75
2022/03/16 01:25:19;;;;;;;46.72;28.00;;;2.70;99.90;;;;;;5056003;28;20496;-75
2022/03/16 01:27:45;;;;;;;49.58;26.58;;;2.70;99.90;;;;;;5056194;28;20106;-75
2022/03/16 01:30:13;;;;;;;48.22;24.70;;;2.60;99.90;;;;;;5054771;28;20481;-75
2022/03/16 01:32:40;;;;;;;42.50;23.98;;;2.60;99.90;;;;;;5036542;28;20076;-75
2022/03/16 01:35:07;;;;;;;54.00;27.80;;;2.50;99.90;;;;;;5054717;28;20560;-75
2022/03/16 01:37:32;;;;;;;55.63;28.65;;;2.40;99.90;;;;;;5054676;28;20072;-75
2022/03/16 01:39:58;;;;;;;79.85;33.60;;;2.40;99.90;;;;;;5088605;28;20138;-76
2022/03/16 01:42:25;;;;;;;192.68;45.33;;;2.50;99.90;;;;;;5056185;28;20052;-75
2022/03/16 01:44:53;;;;;;;129.35;41.28;;;2.40;99.90;;;;;;5054568;28;20043;-75
2022/03/16 01:47:21;;;;;;;192.45;49.63;;;2.40;99.90;;;;;;5054669;28;20055;-76
2022/03/16 01:49:49;;;;;;;124.03;42.92;;;2.50;99.90;;;;;;5071216;28;20036;-76
2022/03/16 01:52:20;;;;;;;85.50;39.55;;;2.50;99.90;;;;;;5071002;28;20048;-75
2022/03/16 01:54:46;;;;;;;99.20;41.40;;;2.60;99.90;;;;;;5087922;28;20497;-75
2022/03/16 01:57:15;;;;;;;75.95;33.38;;;2.60;99.90;;;;;;5054669;28;20067;-75
2022/03/16 01:59:42;;;;;;;132.25;45.50;;;2.60;99.90;;;;;;5055802;28;20041;-75
2022/03/16 02:02:09;;;;;;;79.60;39.13;;;2.70;99.90;;;;;;5053528;28;20041;-75
2022/03/16 02:04:35;;;;;;;106.05;43.35;;;2.70;99.90;;;;;;5054480;28;20102;-75
2022/03/16 02:07:02;;;;;;;83.22;38.80;;;2.70;99.90;;;;;;5087574;28;20040;-75
2022/03/16 02:09:29;;;;;;;81.50;37.97;;;2.80;99.90;;;;;;5055439;28;20429;-76
2022/03/16 02:11:55;;;;;;;359.58;62.08;;;2.80;99.90;;;;;;5055541;28;20033;-76
2022/03/16 02:14:21;;;;;;;294.83;53.88;;;2.70;99.90;;;;;;5037306;28;20041;-76
2022/03/16 02:16:48;;;;;;;372.08;66.45;;;2.70;99.90;;;;;;5053891;28;20049;-76
2022/03/16 02:19:14;;;;;;;358.73;61.47;;;2.70;99.90;;;;;;5054270;28;20439;-75
2022/03/16 02:21:41;;;;;;;354.73;60.40;;;2.70;99.90;;;;;;5053666;28;20100;-75
2022/03/16 02:24:08;;;;;;;389.67;69.05;;;2.70;99.90;;;;;;5087528;28;20083;-75
2022/03/16 02:26:34;;;;;;;155.00;50.95;;;2.70;99.90;;;;;;5054845;28;20033;-75
2022/03/16 02:29:00;;;;;;;141.50;50.78;;;2.80;99.90;;;;;;5054264;28;20037;-75
2022/03/16 02:31:26;;;;;;;133.77;49.38;;;2.90;99.90;;;;;;5068247;28;20508;-76
2022/03/16 02:33:53;;;;;;;144.88;53.33;;;2.90;99.90;;;;;;5070627;28;20394;-75
2022/03/16 02:36:19;;;;;;;126.97;55.35;;;2.90;99.90;;;;;;5054757;28;20052;-76
2022/03/16 02:38:45;;;;;;;357.80;70.90;;;3.00;99.90;;;;;;5044499;28;20060;-76
2022/03/16 02:41:11;;;;;;;525.53;90.10;;;3.00;99.90;;;;;;5033750;28;20120;-76
2022/03/16 02:43:38;;;;;;;292.95;65.85;;;3.10;99.90;;;;;;5034814;28;20152;-76
2022/03/16 02:46:05;;;;;;;173.10;57.70;;;3.00;99.90;;;;;;5064081;28;20091;-76
2022/03/16 02:48:30;;;;;;;435.48;70.43;;;3.10;99.90;;;;;;5033729;28;20029;-76
2022/03/16 02:50:56;;;;;;;577.33;94.28;;;3.00;99.90;;;;;;5049930;28;20697;-76
2022/03/16 02:53:22;;;;;;;203.50;54.30;;;3.00;99.90;;;;;;5033671;28;20034;-76
2022/03/16 02:55:48;;;;;;;156.55;50.90;;;3.00;99.90;;;;;;5033298;28;20049;-75
2022/03/16 02:58:17;;;;;;;255.85;61.42;;;3.00;99.90;;;;;;5033545;28;20037;-75
2022/03/16 03:00:44;;;;;;;128.00;49.80;;;2.90;99.90;;;;;;5033739;28;20042;-75
2022/03/16 03:03:10;;;;;;;77.88;39.53;;;3.00;99.90;;;;;;5032856;28;20049;-75
2022/03/16 03:05:36;;;;;;;83.70;40.13;;;2.90;99.90;;;;;;5033051;28;20049;-76
2022/03/16 03:08:02;;;;;;;146.32;51.83;;;2.90;99.90;;;;;;5033300;28;20493;-75
2022/03/16 03:10:28;;;;;;;148.02;53.00;;;2.90;99.90;;;;;;5033403;28;20433;-76
2022/03/16 03:12:54;;;;;;;121.60;48.85;;;2.90;99.90;;;;;;5049868;28;20045;-75
2022/03/16 03:15:20;;;;;;;96.18;44.47;;;2.90;99.90;;;;;;5000539;28;20466;-75
2022/03/16 03:17:46;;;;;;;117.57;47.97;;;2.90;99.90;;;;;;5034132;28;20048;-75
2022/03/16 03:20:13;;;;;;;112.35;49.55;;;2.90;99.90;;;;;;5032613;28;20065;-76
2022/03/16 03:22:40;;;;;;;952.58;133.20;;;2.90;99.90;;;;;;5034244;28;20046;-75
2022/03/16 03:25:10;;;;;;;168.75;47.53;;;2.90;99.90;;;;;;5049357;28;20086;-76
2022/03/16 03:27:37;;;;;;;1039.95;141.23;;;2.80;99.90;;;;;;5066401;28;20037;-76
2022/03/16 03:30:04;;;;;;;593.78;70.50;;;2.70;99.90;;;;;;5034066;28;20045;-76
2022/03/16 03:32:30;;;;;;;600.50;63.35;;;2.60;99.90;;;;;;5031642;28;20096;-76
2022/03/16 03:34:56;;;;;;;652.08;80.63;;;2.60;99.90;;;;;;5033787;28;20037;-76
2022/03/16 03:37:25;;;;;;;306.45;59.00;;;2.50;99.90;;;;;;5032529;28;20049;-76
2022/03/16 03:39:52;;;;;;;594.38;82.47;;;2.50;99.90;;;;;;5068161;28;20041;-76
2022/03/16 03:42:18;;;;;;;212.88;50.13;;;2.50;99.90;;;;;;5052597;28;20124;-76
2022/03/16 03:44:43;;;;;;;479.45;87.60;;;2.60;99.90;;;;;;5085640;28;20469;-76
2022/03/16 03:47:10;;;;;;;191.80;41.53;;;2.60;99.90;;;;;;5053554;28;20078;-76
2022/03/16 03:49:39;;;;;;;267.88;47.30;;;2.50;99.90;;;;;;5069194;28;20041;-76
2022/03/16 03:52:06;;;;;;;250.55;47.35;;;2.50;99.90;;;;;;5052081;28;20088;-76
2022/03/16 03:54:32;;;;;;;510.77;87.30;;;2.40;99.90;;;;;;5053814;28;20394;-76
2022/03/16 03:56:58;;;;;;;113.53;40.50;;;2.50;99.90;;;;;;5052333;28;20417;-76
2022/03/16 03:59:24;;;;;;;540.95;69.07;;;2.40;99.90;;;;;;5085978;28;20048;-75
2022/03/16 04:01:50;;;;;;;230.25;49.42;;;2.30;99.90;;;;;;5083215;28;20555;-76
2022/03/16 04:04:16;;;;;;;102.35;40.15;;;2.30;99.90;;;;;;5053546;28;20048;-76
2022/03/16 04:06:43;;;;;;;559.80;84.65;;;2.30;99.90;;;;;;5053026;28;20044;-76
2022/03/16 04:09:09;;;;;;;257.48;54.33;;;2.30;99.90;;;;;;5053347;28;20071;-76
2022/03/16 04:11:35;;;;;;;409.27;78.32;;;2.30;99.90;;;;;;5053204;28;20040;-76
2022/03/16 04:14:02;;;;;;;547.55;86.20;;;2.30;99.90;;;;;;5085637;28;20132;-76
2022/03/16 04:16:27;;;;;;;340.55;66.57;;;2.40;99.90;;;;;;5051739;28;20036;-76
2022/03/16 04:18:54;;;;;;;370.25;71.18;;;2.50;99.90;;;;;;5051751;28;20555;-75
2022/03/16 04:21:20;;;;;;;409.70;75.90;;;2.50;99.90;;;;;;5052911;28;20220;-76
2022/03/16 04:23:46;;;;;;;212.48;60.50;;;2.50;99.90;;;;;;5051916;28;20102;-76
2022/03/16 04:26:12;;;;;;;497.23;81.32;;;2.50;99.90;;;;;;5085200;28;20401;-76
2022/03/16 04:28:38;;;;;;;110.78;52.40;;;2.50;99.90;;;;;;5052881;28;20087;-75
2022/03/16 04:31:04;;;;;;;131.05;53.20;;;2.50;99.90;;;;;;5049687;28;20104;-75
2022/03/16 04:33:30;;;;;;;135.88;51.80;;;2.60;99.90;;;;;;5068256;28;20468;-76
2022/03/16 04:35:57;;;;;;;111.15;49.70;;;2.50;99.90;;;;;;5068470;28;20037;-76
2022/03/16 04:38:23;;;;;;;219.77;66.05;;;2.50;99.90;;;;;;5044301;28;20068;-76
2022/03/16 04:40:49;;;;;;;183.32;60.25;;;2.50;99.90;;;;;;5031515;28;20080;-76
2022/03/16 04:43:15;;;;;;;114.25;53.90;;;2.50;99.90;;;;;;5031573;28;20048;-76
2022/03/16 04:45:41;;;;;;;351.63;83.13;;;2.50;99.90;;;;;;5064780;28;20474;-76
2022/03/16 04:48:11;;;;;;;446.42;82.28;;;2.60;99.90;;;;;;5031694;28;20367;-76
2022/03/16 04:50:41;;;;;;;670.85;93.03;;;2.70;99.90;;;;;;5030858;28;20490;-76
2022/03/16 04:53:07;;;;;;;812.50;112.83;;;2.70;99.90;;;;;;5048409;28;20033;-76
2022/03/16 04:55:37;;;;;;;854.85;98.05;;;2.60;99.90;;;;;;5031673;28;20319;-76
2022/03/16 04:58:07;;;;;;;379.33;61.10;;;2.40;99.90;;;;;;5032659;28;20038;-76
2022/03/16 05:00:34;;;;;;;287.73;64.28;;;2.40;99.90;;;;;;5031390;28;20045;-76
2022/03/16 05:02:59;;;;;;;162.02;57.65;;;2.30;99.90;;;;;;5029315;28;20120;-75
2022/03/16 05:05:25;;;;;;;158.80;56.17;;;2.40;99.90;;;;;;5032532;28;20120;-76
2022/03/16 05:07:51;;;;;;;176.02;58.38;;;2.40;99.90;;;;;;5031365;28;20037;-75
2022/03/16 05:10:17;;;;;;;222.98;61.58;;;2.60;99.90;;;;;;5032480;28;20084;-76
2022/03/16 05:12:45;;;;;;;133.43;52.83;;;2.60;99.90;;;;;;5032413;28;20120;-75
2022/03/16 05:15:18;;;;;;;225.63;69.35;;;2.60;99.90;;;;;;5064840;28;20044;-76
2022/03/16 05:17:45;;;;;;;155.50;56.47;;;2.60;99.90;;;;;;5031162;28;20107;-76
2022/03/16 05:20:13;;;;;;;139.02;52.15;;;2.60;99.90;;;;;;5061476;28;20494;-76
2022/03/16 05:22:50;;;;;;;115.72;51.42;;;2.60;99.90;;;;;;5031185;28;20081;-75
2022/03/16 05:25:19;;;;;;;86.32;47.35;;;2.50;99.90;;;;;;5032003;28;20045;-76
2022/03/16 05:27:45;;;;;;;105.70;48.13;;;2.50;99.90;;;;;;5032613;28;20045;-76
2022/03/16 05:30:13;;;;;;;101.70;47.60;;;2.50;99.90;;;;;;5031086;28;20460;-76
2022/03/16 05:32:41;;;;;;;103.85;48.88;;;2.50;99.90;;;;;;5028862;28;20124;-76
2022/03/16 05:35:09;;;;;;;106.68;49.67;;;2.50;99.90;;;;;;5047741;28;20100;-76
2022/03/16 05:37:35;;;;;;;116.57;52.00;;;2.50;99.90;;;;;;5032731;28;20463;-76
2022/03/16 05:40:01;;;;;;;101.72;53.72;;;2.60;99.90;;;;;;5051074;28;20041;-76
2022/03/16 05:42:27;;;;;;;114.25;55.67;;;2.60;99.90;;;;;;5084456;28;20359;-76
2022/03/16 05:44:54;;;;;;;122.88;55.50;;;2.70;99.90;;;;;;5051012;28;20115;-76
2022/03/16 05:47:22;;;;;;;128.18;58.97;;;2.80;99.90;;;;;;5084388;28;20119;-76
2022/03/16 05:49:49;;;;;;;111.20;55.58;;;2.80;99.90;;;;;;5067779;28;20565;-76
2022/03/16 05:52:16;;;;;;;110.28;53.42;;;2.90;99.90;;;;;;5084587;28;20093;-76
2022/03/16 05:54:43;;;;;;;106.85;50.63;;;2.90;99.90;;;;;;5050660;28;20037;-76
2022/03/16 05:57:11;;;;;;;102.13;49.47;;;2.90;99.90;;;;;;5052277;28;20044;-76
2022/03/16 05:59:37;;;;;;;99.18;50.58;;;2.90;99.90;;;;;;5051946;28;20077;-76
2022/03/16 06:02:03;;;;;;;105.93;50.40;;;3.00;99.90;;;;;;5052523;28;20083;-76
2022/03/16 06:04:28;;;;;;;90.15;47.05;;;3.00;99.90;;;;;;5087711;28;20049;-76
2022/03/16 06:06:54;;;;;;;95.70;48.97;;;3.00;99.90;;;;;;5071011;28;20045;-76
2022/03/16 06:09:20;;;;;;;98.80;49.80;;;3.00;99.90;;;;;;5055453;28;20051;-76
2022/03/16 06:11:47;;;;;;;113.30;52.80;;;2.90;99.90;;;;;;5055816;28;20481;-76
2022/03/16 06:14:12;;;;;;;100.65;50.17;;;2.90;99.90;;;;;;5071046;28;20048;-76
2022/03/16 06:16:38;;;;;;;99.35;48.30;;;2.90;99.90;;;;;;5055487;28;20168;-76
2022/03/16 06:19:04;;;;;;;108.38;51.75;;;2.90;99.90;;;;;;5055354;28;20044;-76
2022/03/16 06:21:30;;;;;;;102.53;52.80;;;3.00;99.90;;;;;;5055317;28;20053;-76
2022/03/16 06:23:57;;;;;;;104.43;53.65;;;3.00;99.90;;;;;;5055214;28;20506;-76
2022/03/16 06:26:23;;;;;;;106.93;54.08;;;3.10;99.90;;;;;;5055039;28;20488;-76
2022/03/16 06:28:50;;;;;;;115.72;56.22;;;3.10;99.90;;;;;;5055091;28;20091;-76
2022/03/16 06:31:16;;;;;;;114.13;58.65;;;3.20;99.90;;;;;;5053047;28;20059;-76
2022/03/16 06:33:41;;;;;;;107.68;55.85;;;3.30;99.90;;;;;;5052879;28;20049;-76
2022/03/16 06:36:07;;;;;;;109.70;57.92;;;3.40;99.90;;;;;;5055008;28;20041;-76
2022/03/16 06:38:33;;;;;;;109.65;59.83;;;3.50;99.90;;;;;;5054266;28;20148;-76
2022/03/16 06:40:59;;;;;;;119.30;61.58;;;3.50;99.90;;;;;;5053913;28;20413;-76
2022/03/16 06:43:25;;;;;;;106.78;57.33;;;3.60;99.90;;;;;;5053400;28;20041;-75
2022/03/16 06:45:51;;;;;;;110.50;58.70;;;3.70;99.90;;;;;;5053589;28;20049;-76
2022/03/16 06:48:21;;;;;;;118.43;59.33;;;3.70;99.90;;;;;;5053419;28;20036;-76
2022/03/16 06:50:47;;;;;;;110.57;60.17;;;3.80;99.90;;;;;;5053374;28;20041;-75
2022/03/16 06:53:13;;;;;;;104.97;55.63;;;3.90;99.90;;;;;;5054576;28;20125;-76
2022/03/16 06:55:38;;;;;;;94.70;55.30;;;4.00;99.90;;;;;;5053462;28;20131;-76
2022/03/16 06:58:04;;;;;;;89.22;53.97;;;4.00;99.90;;;;;;5036724;28;20041;-76
2022/03/16 07:00:31;;;;;;;87.75;51.00;;;4.10;99.90;;;;;;5054596;28;20048;-76
2022/03/16 07:03:05;;;;;;;86.47;50.60;;;4.20;99.90;;;;;;5051250;28;20037;-76
2022/03/16 07:05:33;;;;;;;88.68;52.63;;;4.20;99.90;;;;;;5054185;28;20522;-76
2022/03/16 07:08:03;;;;;;;92.20;54.15;;;4.20;99.90;;;;;;5054602;28;20122;-76
2022/03/16 07:10:30;;;;;;;92.30;53.47;;;4.30;99.90;;;;;;5054484;28;20171;-76
2022/03/16 07:12:56;;;;;;;92.50;52.85;;;4.40;99.90;;;;;;5054114;28;20048;-76
2022/03/16 07:15:23;;;;;;;89.70;55.13;;;4.50;99.90;;;;;;5053217;28;20037;-76
2022/03/16 07:17:50;;;;;;;84.43;52.58;;;4.60;99.90;;;;;;5056304;28;20045;-76
2022/03/16 07:20:16;;;;;;;91.93;52.42;;;4.70;99.90;;;;;;5055470;28;20059;-76
2022/03/16 07:22:42;;;;;;;84.90;51.03;;;4.80;99.90;;;;;;5055848;28;20420;-77
2022/03/16 07:25:09;;;;;;;85.70;51.63;;;4.90;99.90;;;;;;5053899;28;20045;-76
2022/03/16 07:27:40;;;;;;;81.57;50.30;;;4.90;99.90;;;;;;5054096;28;20037;-76
2022/03/16 07:30:09;;;;;;;90.78;49.58;;;5.00;99.90;;;;;;5052671;28;20047;-77
2022/03/16 07:32:41;;;;;;;78.53;47.78;;;5.00;99.90;;;;;;5050574;28;20048;-76
2022/03/16 07:35:09;;;;;;;78.22;49.20;;;5.10;99.90;;;;;;5054144;28;20106;-77
2022/03/16 07:37:35;;;;;;;84.72;52.95;;;5.20;99.90;;;;;;5054021;28;20029;-77
2022/03/16 07:40:02;;;;;;;83.90;50.92;;;5.30;99.90;;;;;;5086317;28;20040;-77
2022/03/16 07:42:30;;;;;;;82.03;53.05;;;5.40;99.90;;;;;;5055128;28;20036;-76
2022/03/16 07:44:56;;;;;;;93.03;55.65;;;5.50;99.90;;;;;;5053663;28;20055;-77
2022/03/16 07:47:24;;;;;;;92.28;56.28;;;5.70;99.90;;;;;;5086329;28;20041;-76
2022/03/16 07:49:51;;;;;;;91.38;54.33;;;5.80;99.90;;;;;;5053841;28;20040;-76
2022/03/16 07:52:17;;;;;;;84.55;54.58;;;5.90;99.90;;;;;;5052413;28;20076;-77
2022/03/16 07:54:42;;;;;;;96.13;56.22;;;6.10;99.90;;;;;;5058865;28;20044;-75
2022/03/16 07:57:08;;;;;;;76.70;51.45;;;6.20;99.90;;;;;;5069462;28;20234;-77
2022/03/16 07:59:34;;;;;;;88.75;55.38;;;6.40;99.90;;;;;;5053497;28;20424;-77
2022/03/16 08:02:00;;;;;;;85.35;52.50;;;6.60;99.90;;;;;;5083992;28;20488;-76
2022/03/16 08:04:26;;;;;;;66.78;47.00;;;6.80;99.90;;;;;;5053601;28;20037;-76
2022/03/16 08:06:52;;;;;;;69.40;46.15;;;7.00;99.90;;;;;;5086705;28;20068;-76
2022/03/16 08:09:18;;;;;;;63.25;44.25;;;7.20;99.90;;;;;;5054729;28;20041;-76
2022/03/16 08:11:43;;;;;;;65.25;42.60;;;7.50;99.90;;;;;;5056984;28;20044;-76
2022/03/16 08:14:09;;;;;;;56.83;41.75;;;7.70;99.90;;;;;;5056694;28;20043;-79
2022/03/16 08:16:35;;;;;;;45.25;33.67;;;8.00;99.90;;;;;;5055449;28;20041;-79
2022/03/16 08:19:01;;;;;;;37.60;29.85;;;8.30;99.90;;;;;;5056321;28;20481;-78
2022/03/16 08:21:26;;;;;;;38.28;28.52;;;8.50;99.90;;;;;;5059999;28;20699;-78
2022/03/16 08:23:54;;;;;;;33.28;25.88;;;8.70;99.90;;;;;;5053944;28;20045;-78
2022/03/16 08:26:19;;;;;;;37.92;24.95;;;8.70;99.90;;;;;;5085245;28;20485;-77
2022/03/16 08:28:47;;;;;;;35.78;24.90;;;8.80;99.90;;;;;;5053227;28;20041;-79
2022/03/16 08:31:14;;;;;;;28.85;22.38;;;8.80;99.90;;;;;;5051737;28;20044;-78
2022/03/16 08:33:41;;;;;;;27.70;21.42;;;9.00;99.90;;;;;;5052178;28;20079;-77
2022/03/16 08:36:08;;;;;;;32.67;23.70;;;9.30;99.90;;;;;;5085779;28;20041;-76
2022/03/16 08:38:37;;;;;;;28.40;21.00;;;9.80;99.90;;;;;;5052756;28;20044;-76
2022/03/16 08:41:07;;;;;;;30.33;21.63;;;10.50;99.90;;;;;;5054394;28;20397;-77
2022/03/16 08:43:33;;;;;;;24.55;19.35;;;10.90;99.90;;;;;;5053600;28;20510;-76
2022/03/16 08:46:00;;;;;;;28.25;19.73;;;11.20;99.90;;;;;;5052228;28;20040;-76
2022/03/16 08:48:26;;;;;;;24.88;18.45;;;11.30;99.90;;;;;;5053559;28;20051;-75
2022/03/16 08:50:52;;;;;;;25.45;17.40;;;11.40;99.90;;;;;;5053292;28;20125;-76
2022/03/16 08:53:18;;;;;;;21.05;16.73;;;11.70;99.90;;;;;;5085072;28;20123;-75
2022/03/16 08:55:43;;;;;;;21.67;17.48;;;12.20;99.90;;;;;;5052063;28;20049;-76
2022/03/16 08:58:09;;;;;;;21.92;17.42;;;12.70;99.90;;;;;;5051686;28;20481;-75
2022/03/16 09:00:37;;;;;;;19.38;15.88;;;13.00;99.90;;;;;;5035068;28;20110;-76
2022/03/16 09:03:03;;;;;;;25.42;17.45;;;13.40;99.90;;;;;;5049810;28;20049;-76
2022/03/16 09:05:30;;;;;;;23.25;17.42;;;13.70;99.90;;;;;;5051087;28;20080;-75
2022/03/16 09:07:55;;;;;;;17.25;14.10;;;14.00;99.90;;;;;;5052719;28;20033;-76
2022/03/16 09:10:21;;;;;;;19.70;15.00;;;14.30;99.90;;;;;;5052336;28;20041;-75
2022/03/16 09:12:47;;;;;;;21.83;15.63;;;14.50;99.90;;;;;;5051034;28;20091;-76
2022/03/16 09:15:13;;;;;;;19.50;15.45;;;14.80;99.90;;;;;;5051683;28;20049;-76
2022/03/16 09:17:38;;;;;;;18.27;14.90;;;14.90;99.90;;;;;;5053321;28;20045;-77
2022/03/16 09:20:05;;;;;;;22.65;15.63;;;15.00;99.90;;;;;;5051889;28;20053;-76
2022/03/16 09:22:32;;;;;;;18.77;14.00;;;15.20;99.90;;;;;;5051642;28;20092;-77
2022/03/16 09:24:58;;;;;;;18.98;15.10;;;15.50;99.90;;;;;;5053510;28;20506;-77
2022/03/16 09:27:25;;;;;;;14.57;12.98;;;15.60;99.90;;;;;;5053371;28;20068;-76
2022/03/16 09:29:55;;;;;;;17.60;14.57;;;15.60;99.90;;;;;;5052304;28;20045;-77
2022/03/16 09:32:22;;;;;;;16.35;14.15;;;15.80;99.90;;;;;;5051293;28;20037;-77
2022/03/16 09:34:48;;;;;;;16.00;13.27;;;15.90;99.90;;;;;;5053758;28;20147;-77
2022/03/16 09:37:15;;;;;;;17.67;14.07;;;16.20;99.90;;;;;;5054098;28;20045;-77
2022/03/16 09:39:41;;;;;;;16.88;13.10;;;16.60;99.90;;;;;;5052878;28;20049;-79
2022/03/16 09:42:08;;;;;;;14.60;11.73;;;16.90;99.90;;;;;;5090249;28;20043;-78
2022/03/16 09:44:34;;;;;;;14.18;12.68;;;17.00;98.10;;;;;;5057322;28;20048;-77
2022/03/16 09:47:01;;;;;;;14.90;12.40;;;16.90;95.40;;;;;;5055643;28;20045;-77
2022/03/16 09:49:27;;;;;;;16.20;13.55;;;17.00;95.40;;;;;;5055572;28;20146;-76
2022/03/16 09:51:53;;;;;;;15.27;12.82;;;17.00;92.60;;;;;;5055172;28;20033;-76
2022/03/16 09:54:20;;;;;;;16.00;13.07;;;17.10;92.80;;;;;;5056419;28;20120;-77
2022/03/16 09:56:47;;;;;;;16.35;13.13;;;17.10;92.60;;;;;;5088179;28;20051;-76
2022/03/16 09:59:14;;;;;;;15.75;12.65;;;16.90;91.80;;;;;;5055776;28;20493;-76
2022/03/16 10:01:43;;;;;;;14.70;12.40;;;16.70;90.90;;;;;;5086045;28;20124;-77
2022/03/16 10:04:09;;;;;;;16.27;12.25;;;16.40;90.20;;;;;;5055974;28;20044;-77
2022/03/16 10:06:42;;;;;;;14.30;12.32;;;16.00;90.30;;;;;;5055632;28;20080;-77
2022/03/16 10:15:18;;;;;;;16.13;11.82;;;15.60;90.60;;;;;;5055320;28;20045;-78
2022/03/16 10:18:10;;;;;;;15.20;12.00;;;15.50;89.60;;;;;;5055462;28;20033;-78
2022/03/16 10:20:40;;;;;;;16.77;12.65;;;15.70;88.20;;;;;;5055237;28;20064;-77
2022/03/16 10:23:16;;;;;;;15.90;11.10;;;15.90;88.70;;;;;;5054265;28;20076;-76
2022/03/16 10:25:51;;;;;;;14.43;10.68;;;16.10;88.60;;;;;;5088094;28;20037;-78
2022/03/16 10:28:19;;;;;;;13.20;10.65;;;16.20;87.90;;;;;;5055449;28;20056;-79
2022/03/16 10:31:07;;;;;;;12.63;9.85;;;16.30;82.30;;;;;;5055260;28;20048;-77
2022/03/16 10:33:51;;;;;;;14.57;10.90;;;16.10;79.20;;;;;;5054170;28;20501;-78
2022/03/16 10:36:20;;;;;;;15.85;11.35;;;16.00;79.30;;;;;;5055104;28;20123;-79
2022/03/16 10:38:51;;;;;;;13.00;11.60;;;16.00;79.10;;;;;;5055176;28;20045;-78
2022/03/16 10:46:58;;;;;;;13.93;10.40;;;15.60;77.30;;;;;;5053805;28;20098;-79
2022/03/16 10:49:30;;;;;;;15.27;11.35;;;15.30;78.40;;;;;;5054263;28;20079;-77
2022/03/16 10:52:05;;;;;;;15.07;11.15;;;15.20;80.40;;;;;;5053942;28;20037;-77
2022/03/16 10:54:36;;;;;;;16.00;11.38;;;15.60;83.50;;;;;;5055028;28;20028;-78
2022/03/16 10:57:03;;;;;;;15.48;10.52;;;16.20;84.00;;;;;;5053451;28;20103;-77
2022/03/16 10:59:31;;;;;;;11.80;9.63;;;16.80;80.80;;;;;;5054681;28;20485;-76
2022/03/16 11:02:02;;;;;;;11.00;9.80;;;17.10;77.50;;;;;;5052601;28;20086;-78
2022/03/16 11:04:33;;;;;;;12.18;9.07;;;17.30;75.50;;;;;;5053345;28;20041;-77
2022/03/16 11:07:00;;;;;;;14.05;10.07;;;17.50;76.50;;;;;;5053250;28;20048;-76
2022/03/16 11:09:27;;;;;;;15.60;10.88;;;17.70;75.60;;;;;;5054505;28;20125;-78
2022/03/16 11:14:40;;;;;;;12.48;8.90;;;17.90;70.90;;;;;;5054653;28;20040;-77
2022/03/16 11:17:07;;;;;;;13.43;10.40;;;17.70;69.20;;;;;;5052362;28;20064;-78
2022/03/16 11:19:37;;;;;;;15.30;10.43;;;17.40;69.30;;;;;;5052796;28;20536;-75
2022/03/16 11:22:06;;;;;;;;;;;17.50;72.70;;;;;;5054384;28;20430;-77
2022/03/16 11:24:40;;;;;;;13.23;10.52;;;17.80;71.30;;;;;;5086697;28;20026;-75
2022/03/16 11:27:25;;;;;;;15.13;10.48;;;18.10;71.10;;;;;;5052678;28;20055;-77
2022/03/16 11:30:07;;;;;;;10.98;7.97;;;18.40;70.50;;;;;;5054142;28;20041;-77
2022/03/16 11:32:45;;;;;;;12.10;8.75;;;18.60;68.20;;;;;;5050654;28;20033;-77
2022/03/16 11:35:12;;;;;;;10.60;7.85;;;18.70;65.90;;;;;;5052622;28;20040;-76
2022/03/16 11:37:47;;;;;;;11.32;9.10;;;18.60;65.00;;;;;;5036182;28;20037;-77
2022/03/16 11:40:22;;;;;;;10.40;8.55;;;18.50;66.50;;;;;;5035902;28;20048;-77
2022/03/16 11:43:11;;;;;;;12.07;8.60;;;18.40;66.40;;;;;;5086331;28;20075;-78
2022/03/16 11:45:38;;;;;;;11.13;8.82;;;18.30;63.60;;;;;;5053944;28;20060;-78
2022/03/16 11:48:32;;;;;;;12.38;7.95;;;18.10;64.00;;;;;;5053444;28;20499;-77
2022/03/16 11:51:11;;;;;;;11.57;8.70;;;18.20;64.00;;;;;;5052657;28;20037;-76
2022/03/16 11:53:51;;;;;;;11.95;9.38;;;18.40;65.70;;;;;;5053849;28;20075;-76
2022/03/16 11:56:44;;;;;;;12.05;8.95;;;18.40;66.70;;;;;;5052660;28;20041;-76
2022/03/16 11:59:20;;;;;;;11.32;8.10;;;18.40;65.50;;;;;;5053161;28;20049;-78
2022/03/16 12:01:48;;;;;;;12.10;9.13;;;18.40;64.90;;;;;;5049895;28;20045;-76
2022/03/16 12:04:42;;;;;;;10.98;8.55;;;18.30;64.10;;;;;;5053532;28;20132;-75
2022/03/16 12:07:12;;;;;;;12.68;9.75;;;18.30;64.40;;;;;;5052107;28;20127;-76
2022/03/16 12:10:00;;;;;;;11.02;8.20;;;18.20;65.70;;;;;;5053294;28;20045;-77
2022/03/16 12:12:51;;;;;;;9.70;7.15;;;17.90;62.10;;;;;;5051814;28;20478;-77
2022/03/16 12:15:37;;;;;;;14.18;9.50;;;17.60;63.90;;;;;;5053282;28;20049;-77
2022/03/16 12:18:11;;;;;;;9.77;8.52;;;17.60;64.30;;;;;;5051725;28;20098;-75
2022/03/16 12:20:49;;;;;;;11.63;8.68;;;17.60;64.50;;;;;;5051594;28;20049;-75
2022/03/16 12:23:18;;;;;;;12.60;8.48;;;17.70;64.70;;;;;;5052983;28;20044;-77
2022/03/16 12:25:47;;;;;;;11.05;7.72;;;17.70;64.10;;;;;;5053100;28;20087;-77
2022/03/16 12:31:11;;;;;;;10.95;8.70;;;17.80;62.70;;;;;;5049844;28;20033;-77
2022/03/16 12:33:45;;;;;;;11.30;8.60;;;18.00;64.20;;;;;;5032953;28;20041;-76
2022/03/16 12:36:14;;;;;;;9.55;7.75;;;18.00;63.10;;;;;;5052986;28;20400;-76
2022/03/16 12:38:43;;;;;;;14.02;7.95;;;17.90;62.60;;;;;;5051460;28;20052;-74
2022/03/16 12:43:57;;;;;;;12.75;8.85;;;17.90;64.60;;;;;;5051525;28;20380;-75
2022/03/16 12:46:48;;;;;;;11.20;8.23;;;18.20;63.80;;;;;;5051546;28;20041;-78
2022/03/16 12:49:17;;;;;;;9.68;7.38;;;18.50;61.00;;;;;;5034994;28;20033;-76
2022/03/16 12:51:50;;;;;;;13.73;8.30;;;18.40;60.50;;;;;;5051754;28;20044;-78
2022/03/16 12:54:27;;;;;;;13.45;9.40;;;18.10;60.50;;;;;;5051694;28;20131;-74
2022/03/16 12:57:01;;;;;;;12.68;8.85;;;17.90;61.10;;;;;;5051765;28;20051;-75